Time;durP1;ratioP1;P1;durP2;ratioP2;P2;SDS_P1;SDS_P2;PMS_P1;PMS_P2;Temp;Humidity;BMP_temperature;BMP_pressure;BME280_temperature;BME280_humidity;BME280_pressure;Samples;Min_cycle;Max_cycle;Signal;HPM_P1;HPM_P2
2023/07/25 00:02:18;;;;;;;18.77;6.13;;;;;;;12.16;100.00;100551.69;5062001;28;20068;-64
2023/07/25 00:04:43;;;;;;;18.58;5.80;;;;;;;12.08;100.00;100553.50;5066063;28;20082;-65
2023/07/25 00:07:09;;;;;;;18.45;5.97;;;;;;;12.05;100.00;100556.16;5064476;28;20040;-65
2023/07/25 00:09:34;;;;;;;20.05;6.40;;;;;;;12.07;100.00;100557.03;5065002;28;20037;-65
2023/07/25 00:11:59;;;;;;;17.77;5.97;;;;;;;12.06;100.00;100549.09;5063925;28;20471;-64
2023/07/25 00:14:25;;;;;;;19.35;6.30;;;;;;;12.09;100.00;100549.09;5063782;28;20091;-64
2023/07/25 00:16:50;;;;;;;17.10;5.97;;;;;;;12.00;100.00;100555.34;5066264;28;20033;-64
2023/07/25 00:19:16;;;;;;;19.48;6.30;;;;;;;11.95;100.00;100552.69;5061680;28;20380;-65
2023/07/25 00:21:41;;;;;;;18.30;6.00;;;;;;;11.96;100.00;100553.59;5065658;28;20574;-63
2023/07/25 00:24:06;;;;;;;20.25;6.47;;;;;;;12.02;100.00;100550.91;5064349;28;20412;-64
2023/07/25 00:26:32;;;;;;;19.52;6.22;;;;;;;12.06;100.00;100560.59;5063929;28;20468;-65
2023/07/25 00:28:57;;;;;;;19.98;6.60;;;;;;;12.01;100.00;100550.03;5065793;28;20475;-64
2023/07/25 00:31:22;;;;;;;20.55;6.53;;;;;;;11.99;100.00;100550.91;5062565;28;20079;-64
2023/07/25 00:33:48;;;;;;;17.95;6.20;;;;;;;11.95;100.00;100543.88;5066016;28;20034;-63
2023/07/25 00:36:13;;;;;;;19.50;6.25;;;;;;;11.94;100.00;100544.75;5063139;28;20061;-64
2023/07/25 00:38:38;;;;;;;19.08;6.60;;;;;;;11.92;100.00;100541.22;5064818;28;20082;-64
2023/07/25 00:41:04;;;;;;;19.73;6.55;;;;;;;11.88;100.00;100545.63;5063044;28;20053;-64
2023/07/25 00:43:29;;;;;;;20.13;6.40;;;;;;;11.81;100.00;100543.91;5064184;28;20029;-64
2023/07/25 00:45:55;;;;;;;17.98;6.18;;;;;;;11.77;100.00;100545.72;5064483;28;20082;-64
2023/07/25 00:48:20;;;;;;;19.00;7.00;;;;;;;11.72;100.00;100550.13;5062879;28;20037;-64
2023/07/25 00:50:46;;;;;;;17.15;6.32;;;;;;;11.68;100.00;100553.72;5065567;28;20060;-64
2023/07/25 00:53:12;;;;;;;19.08;6.90;;;;;;;11.69;100.00;100551.06;5062240;28;20037;-64
2023/07/25 00:55:38;;;;;;;19.02;6.90;;;;;;;11.66;100.00;100545.78;5065239;28;20025;-64
2023/07/25 00:58:04;;;;;;;20.00;6.60;;;;;;;11.69;100.00;100535.16;5063008;28;20032;-64
2023/07/25 01:00:29;;;;;;;18.40;6.35;;;;;;;11.70;100.00;100543.97;5063966;28;20463;-65
2023/07/25 01:02:54;;;;;;;18.25;6.55;;;;;;;11.69;100.00;100548.41;5064217;28;20067;-64
2023/07/25 01:05:20;;;;;;;20.60;7.28;;;;;;;11.71;100.00;100543.09;5062501;28;20426;-64
2023/07/25 01:07:46;;;;;;;18.55;6.40;;;;;;;11.74;100.00;100540.44;5065317;28;20119;-64
2023/07/25 01:10:14;;;;;;;19.45;6.60;;;;;;;11.77;100.00;100550.13;5062025;28;20507;-65
2023/07/25 01:12:39;;;;;;;19.45;6.63;;;;;;;11.78;100.00;100542.19;5065017;28;20067;-64
2023/07/25 01:15:05;;;;;;;19.85;6.80;;;;;;;11.78;100.00;100538.63;5062510;28;20067;-64
2023/07/25 01:17:30;;;;;;;17.52;6.40;;;;;;;11.75;100.00;100539.56;5063774;28;20033;-64
2023/07/25 01:19:56;;;;;;;17.95;6.30;;;;;;;11.70;100.00;100543.97;5063754;28;20418;-64
2023/07/25 01:22:25;;;;;;;19.08;6.50;;;;;;;11.74;100.00;100547.50;5062300;28;20025;-64
2023/07/25 01:24:54;;;;;;;19.70;6.53;;;;;;;11.73;100.00;100543.09;5064584;28;20037;-64
2023/07/25 01:27:19;;;;;;;18.70;6.50;;;;;;;11.64;100.00;100541.38;5062054;28;20399;-64
2023/07/25 01:29:44;;;;;;;18.92;6.40;;;;;;;11.48;100.00;100540.56;5064945;28;20119;-64
2023/07/25 01:32:11;;;;;;;19.52;6.72;;;;;;;11.44;100.00;100537.03;5062076;28;20384;-70
2023/07/25 01:34:36;;;;;;;18.50;6.70;;;;;;;11.42;100.00;100545.88;5064068;28;20067;-63
2023/07/25 01:37:02;;;;;;;20.50;6.93;;;;;;;11.38;100.00;100536.19;5062527;28;20067;-64
2023/07/25 01:39:28;;;;;;;19.13;6.72;;;;;;;11.36;100.00;100530.91;5063467;28;20025;-64
2023/07/25 01:41:53;;;;;;;20.55;7.05;;;;;;;11.29;100.00;100535.31;5062590;28;20036;-63
2023/07/25 01:44:18;;;;;;;18.45;6.75;;;;;;;11.32;100.00;100534.44;5062716;28;20036;-66
2023/07/25 01:46:44;;;;;;;18.08;6.38;;;;;;;11.34;100.00;100532.66;5063884;28;20074;-69
2023/07/25 01:49:10;;;;;;;19.63;7.40;;;;;;;11.32;100.00;100523.84;5061439;28;20040;-64
2023/07/25 01:51:36;;;;;;;20.70;7.40;;;;;;;11.33;100.00;100529.13;5057386;28;20033;-65
2023/07/25 01:54:01;;;;;;;19.83;7.60;;;;;;;11.32;100.00;100526.50;5064023;28;20032;-64
2023/07/25 01:56:27;;;;;;;20.17;7.45;;;;;;;11.26;100.00;100529.19;5062079;28;20033;-65
2023/07/25 01:58:52;;;;;;;20.27;7.00;;;;;;;11.19;100.00;100522.13;5063039;28;20407;-63
2023/07/25 02:01:17;;;;;;;18.85;6.82;;;;;;;11.12;100.00;100516.84;5062481;28;20052;-64
2023/07/25 02:03:43;;;;;;;18.77;6.50;;;;;;;11.05;100.00;100517.75;5061307;28;20480;-67
2023/07/25 02:06:08;;;;;;;20.55;6.72;;;;;;;11.02;100.00;100511.59;5064569;28;20033;-64
2023/07/25 02:08:34;;;;;;;18.67;6.60;;;;;;;11.05;100.00;100517.75;5061046;28;20027;-64
2023/07/25 02:11:00;;;;;;;20.85;7.13;;;;;;;11.02;100.00;100501.88;5063554;28;20548;-64
2023/07/25 02:13:25;;;;;;;18.77;6.72;;;;;;;10.98;100.00;100518.69;5062342;28;20033;-64
2023/07/25 02:15:50;;;;;;;19.55;6.97;;;;;;;10.94;100.00;100514.28;5062311;28;20033;-64
2023/07/25 02:18:16;;;;;;;19.17;6.45;;;;;;;10.98;100.00;100518.69;5063371;28;20495;-64
2023/07/25 02:20:41;;;;;;;18.65;6.60;;;;;;;10.88;100.00;100522.19;5061507;28;20036;-64
2023/07/25 02:23:06;;;;;;;19.15;7.07;;;;;;;10.87;100.00;100510.75;5064143;28;20467;-64
2023/07/25 02:25:32;;;;;;;20.08;7.93;;;;;;;10.88;100.00;100520.44;5061287;28;20411;-64
2023/07/25 02:27:58;;;;;;;18.45;6.95;;;;;;;10.81;100.00;100514.28;5063224;28;20037;-63
2023/07/25 02:30:23;;;;;;;19.00;7.07;;;;;;;10.81;100.00;100514.28;5062197;28;20528;-64
2023/07/25 02:32:49;;;;;;;20.42;6.90;;;;;;;10.78;100.00;100516.06;5062088;28;20031;-63
2023/07/25 02:35:14;;;;;;;20.30;7.25;;;;;;;10.73;100.00;100507.25;5063583;28;20111;-66
2023/07/25 02:37:40;;;;;;;20.17;7.93;;;;;;;10.68;100.00;100503.75;5060798;28;20476;-64
2023/07/25 02:40:06;;;;;;;20.00;6.82;;;;;;;10.64;100.00;100500.22;5056640;28;20533;-64
2023/07/25 02:42:32;;;;;;;18.83;7.10;;;;;;;10.68;100.00;100507.25;5060385;28;20025;-64
2023/07/25 02:44:57;;;;;;;19.23;7.30;;;;;;;10.62;100.00;100513.44;5063838;28;20025;-63
2023/07/25 02:47:23;;;;;;;19.40;7.22;;;;;;;10.66;100.00;100502.84;5061509;28;20434;-64
2023/07/25 02:49:48;;;;;;;19.60;7.40;;;;;;;10.71;100.00;100512.53;5062415;28;20060;-64
2023/07/25 02:52:13;;;;;;;19.48;7.43;;;;;;;10.75;100.00;100519.59;5062620;28;20074;-64
2023/07/25 02:54:39;;;;;;;19.27;7.20;;;;;;;10.77;100.00;100514.28;5061379;28;20083;-63
2023/07/25 02:57:05;;;;;;;19.33;7.30;;;;;;;10.83;100.00;100519.56;5063755;28;20052;-69
2023/07/25 02:59:30;;;;;;;21.58;8.05;;;;;;;10.87;100.00;100518.69;5060465;28;20028;-66
2023/07/25 03:01:56;;;;;;;20.92;8.00;;;;;;;10.90;100.00;100520.44;5063407;28;20190;-64
2023/07/25 03:04:21;;;;;;;21.58;7.72;;;;;;;10.96;100.00;100515.13;5061478;28;20112;-64
2023/07/25 03:06:46;;;;;;;20.05;7.47;;;;;;;11.00;100.00;100516.91;5062371;28;20036;-64
2023/07/25 03:09:12;;;;;;;19.25;7.32;;;;;;;11.01;100.00;100513.38;5062628;28;20248;-64
2023/07/25 03:11:37;;;;;;;19.17;7.32;;;;;;;11.06;100.00;100513.34;5061642;28;20025;-64
2023/07/25 03:14:03;;;;;;;19.58;7.60;;;;;;;11.07;100.00;100518.63;5067675;28;20064;-66
2023/07/25 03:16:29;;;;;;;19.98;7.65;;;;;;;11.09;100.00;100516.84;5063975;28;20039;-64
2023/07/25 03:18:54;;;;;;;20.52;7.70;;;;;;;11.12;100.00;100513.34;5066745;28;20032;-64
2023/07/25 03:21:19;;;;;;;20.20;7.90;;;;;;;11.09;100.00;100516.84;5065393;28;20379;-64
2023/07/25 03:23:45;;;;;;;21.27;7.85;;;;;;;11.13;100.00;100512.47;5065354;28;20025;-65
2023/07/25 03:26:10;;;;;;;20.05;7.85;;;;;;;11.18;100.00;100513.31;5066358;28;20119;-64
2023/07/25 03:28:35;;;;;;;22.52;8.25;;;;;;;11.22;100.00;100503.59;5064177;28;20064;-64
2023/07/25 03:31:01;;;;;;;20.30;8.02;;;;;;;11.28;100.00;100500.94;5067190;28;20082;-65
2023/07/25 03:33:27;;;;;;;21.15;8.25;;;;;;;11.30;100.00;100499.16;5063988;28;20464;-64
2023/07/25 03:35:53;;;;;;;19.85;8.27;;;;;;;11.32;100.00;100505.31;5066316;28;20033;-64
2023/07/25 03:38:19;;;;;;;21.92;8.20;;;;;;;11.30;100.00;100500.03;5064998;28;20071;-64
2023/07/25 03:40:45;;;;;;;19.08;7.72;;;;;;;11.31;100.00;100503.56;5063080;28;20052;-64
2023/07/25 03:43:10;;;;;;;21.13;8.35;;;;;;;11.37;100.00;100494.72;5065218;28;20425;-63
2023/07/25 03:45:35;;;;;;;19.92;8.20;;;;;;;11.34;100.00;100495.59;5064462;28;20025;-64
2023/07/25 03:48:01;;;;;;;20.77;7.82;;;;;;;11.33;100.00;100499.16;5066566;28;20070;-65
2023/07/25 03:50:26;;;;;;;19.88;7.97;;;;;;;11.38;100.00;100494.72;5063374;28;20033;-64
2023/07/25 03:52:51;;;;;;;21.95;8.00;;;;;;;11.37;100.00;100495.59;5066507;28;20059;-64
2023/07/25 03:55:17;;;;;;;20.90;8.32;;;;;;;11.30;100.00;100501.78;5064296;28;20577;-66
2023/07/25 03:57:42;;;;;;;22.30;8.30;;;;;;;11.28;100.00;100499.16;5065068;28;20399;-63
2023/07/25 04:00:08;;;;;;;20.83;8.30;;;;;;;11.25;100.00;100506.25;5065233;28;20056;-64
2023/07/25 04:02:33;;;;;;;19.85;7.60;;;;;;;11.22;100.00;100500.97;5063954;28;20053;-64
2023/07/25 04:04:58;;;;;;;20.48;8.25;;;;;;;11.24;100.00;100505.38;5066458;28;20059;-64
2023/07/25 04:07:24;;;;;;;20.83;8.27;;;;;;;11.22;100.00;100512.41;5063094;28;20507;-63
2023/07/25 04:09:49;;;;;;;22.02;8.30;;;;;;;11.24;100.00;100505.38;5066189;28;20032;-64
2023/07/25 04:12:15;;;;;;;21.48;8.13;;;;;;;11.32;100.00;100507.97;5064004;28;20112;-65
2023/07/25 04:14:40;;;;;;;21.60;8.10;;;;;;;11.27;100.00;100509.75;5064670;28;20060;-64
2023/07/25 04:17:06;;;;;;;20.50;7.95;;;;;;;11.28;100.00;100503.56;5065359;28;20040;-64
2023/07/25 04:19:31;;;;;;;23.15;8.90;;;;;;;11.29;100.00;100514.16;5063487;28;20078;-69
2023/07/25 04:21:57;;;;;;;21.45;8.45;;;;;;;11.24;100.00;100504.47;5066637;28;20063;-63
2023/07/25 04:24:22;;;;;;;20.63;8.45;;;;;;;11.22;100.00;100511.53;5061996;28;20029;-64
2023/07/25 04:26:47;;;;;;;21.33;8.10;;;;;;;11.20;100.00;100510.66;5065681;28;20119;-63
2023/07/25 04:29:13;;;;;;;22.00;8.40;;;;;;;11.22;100.00;100515.06;5064183;28;20029;-64
2023/07/25 04:31:38;;;;;;;20.05;8.27;;;;;;;11.19;100.00;100508.91;5064007;28;20032;-69
2023/07/25 04:34:03;;;;;;;20.73;7.90;;;;;;;11.27;100.00;100515.94;5065414;28;20063;-64
2023/07/25 04:36:29;;;;;;;21.75;8.38;;;;;;;11.28;100.00;100520.31;5062705;28;20029;-64
2023/07/25 04:38:56;;;;;;;21.20;7.97;;;;;;;11.26;100.00;100514.16;5065942;28;20048;-64
2023/07/25 04:41:22;;;;;;;21.42;7.68;;;;;;;11.28;100.00;100514.16;5060332;28;20035;-69
2023/07/25 04:43:47;;;;;;;20.55;8.15;;;;;;;11.35;100.00;100513.25;5058564;28;20029;-65
2023/07/25 04:46:13;;;;;;;21.00;7.93;;;;;;;11.41;100.00;100521.16;5065472;28;20483;-64
2023/07/25 04:48:38;;;;;;;21.05;7.72;;;;;;;11.44;100.00;100514.97;5063327;28;20044;-67
2023/07/25 04:51:03;;;;;;;21.20;7.82;;;;;;;11.47;100.00;100520.25;5064352;28;20088;-65
2023/07/25 04:53:29;;;;;;;22.58;8.15;;;;;;;11.51;100.00;100508.78;5061519;28;20040;-71
2023/07/25 04:55:54;;;;;;;19.60;7.25;;;;;;;11.59;100.00;100512.28;5065323;28;20044;-75
2023/07/25 04:58:19;;;;;;;20.92;7.72;;;;;;;11.71;100.00;100507.78;5060820;28;20464;-74
2023/07/25 05:00:44;;;;;;;20.98;7.60;;;;;;;11.82;100.00;100513.88;5068875;28;20059;-75
2023/07/25 05:03:10;;;;;;;20.88;7.20;;;;;;;11.94;100.00;100499.72;5061920;28;20581;-74
2023/07/25 05:05:35;;;;;;;19.88;7.75;;;;;;;12.09;100.00;100501.41;5064901;28;20477;-74
2023/07/25 05:08:01;;;;;;;20.48;7.18;;;;;;;12.15;100.00;100496.91;5062496;28;20025;-75
2023/07/25 05:10:26;;;;;;;20.52;7.50;;;;;;;12.21;100.00;100506.59;5063842;28;20369;-76
2023/07/25 05:12:51;;;;;;;19.20;7.03;;;;;;;12.25;100.00;100513.63;5063505;28;20090;-64
2023/07/25 05:15:17;;;;;;;20.60;7.30;;;;;;;12.26;100.00;100511.84;5058262;28;20530;-73
2023/07/25 05:17:42;;;;;;;20.38;6.70;;;;;;;12.34;100.00;100513.56;5063748;28;20078;-70
2023/07/25 05:20:08;;;;;;;19.77;6.50;;;;;;;12.51;100.00;100510.78;5063562;28;20028;-81
2023/07/25 05:22:34;;;;;;;20.63;7.22;;;;;;;12.61;100.00;100510.69;5062109;28;20025;-74
2023/07/25 05:24:59;;;;;;;21.95;6.85;;;;;;;12.72;100.00;100511.47;5067742;28;20471;-77
2023/07/25 05:27:24;;;;;;;19.83;6.10;;;;;;;12.87;100.00;100513.97;5061835;28;20040;-78
2023/07/25 05:29:50;;;;;;;19.88;6.13;;;;;;;12.91;100.00;100515.66;5064704;28;20064;-65
2023/07/25 05:32:15;;;;;;;20.60;5.97;;;;;;;13.00;100.00;100511.16;5061412;28;20480;-73
2023/07/25 05:34:40;;;;;;;18.50;5.80;;;;;;;12.98;100.00;100516.50;5063964;28;20036;-71
2023/07/25 05:37:06;;;;;;;18.70;5.38;;;;;;;12.95;100.00;100520.97;5062333;28;20060;-67
2023/07/25 05:39:31;;;;;;;18.08;5.57;;;;;;;12.94;100.00;100521.84;5063920;28;20119;-65
2023/07/25 05:41:57;;;;;;;19.25;5.57;;;;;;;12.99;100.00;100525.31;5062317;28;20402;-70
2023/07/25 05:44:22;;;;;;;20.77;5.72;;;;;;;13.01;100.00;100521.75;5062732;28;20044;-75
2023/07/25 05:46:47;;;;;;;16.95;5.00;;;;;;;13.01;100.00;100523.56;5063645;28;20024;-72
2023/07/25 05:49:13;;;;;;;19.15;5.53;;;;;;;13.09;100.00;100526.97;5060348;28;20380;-75
2023/07/25 05:51:38;;;;;;;18.38;5.18;;;;;;;13.24;100.00;100529.47;5062084;28;20033;-74
2023/07/25 05:54:03;;;;;;;18.52;5.22;;;;;;;13.31;100.00;100524.97;5063147;28;20081;-76
2023/07/25 05:56:29;;;;;;;18.77;4.97;;;;;;;13.42;100.00;100532.84;5061534;28;20063;-74
2023/07/25 05:58:54;;;;;;;19.38;5.20;;;;;;;13.51;100.00;100526.53;5064429;28;20484;-74
2023/07/25 06:01:20;;;;;;;19.30;5.18;;;;;;;13.56;100.00;100525.56;5061061;28;20045;-76
2023/07/25 06:03:45;;;;;;;16.13;4.95;;;;;;;13.63;100.00;100521.06;5064173;28;20111;-65
2023/07/25 06:06:10;;;;;;;18.15;5.10;;;;;;;13.71;100.00;100528.94;5060938;28;20032;-71
2023/07/25 06:08:36;;;;;;;19.75;5.40;;;;;;;13.62;100.00;100523.75;5063820;28;20067;-71
2023/07/25 06:11:01;;;;;;;20.17;5.90;;;;;;;13.60;100.00;100519.34;5061958;28;20085;-76
2023/07/25 06:13:27;;;;;;;19.85;5.90;;;;;;;13.55;100.00;100523.81;5063465;28;20048;-72
2023/07/25 06:15:52;;;;;;;19.05;5.95;;;;;;;13.53;100.00;100520.31;5062775;28;20039;-76
2023/07/25 06:18:18;;;;;;;18.65;6.10;;;;;;;13.59;100.00;100520.22;5062684;28;20028;-75
2023/07/25 06:20:45;;;;;;;20.00;6.53;;;;;;;13.66;100.00;100521.03;5061997;28;20037;-73
2023/07/25 06:23:11;;;;;;;21.60;6.40;;;;;;;13.76;100.00;100527.97;5063844;28;20143;-80
2023/07/25 06:25:36;;;;;;;19.95;6.55;;;;;;;13.85;100.00;100531.38;5062210;28;20490;-72
2023/07/25 06:28:02;;;;;;;18.98;6.25;;;;;;;13.94;100.00;100531.28;5063897;28;20032;-71
2023/07/25 06:30:27;;;;;;;19.48;6.57;;;;;;;14.04;100.00;100532.88;5060425;28;20357;-68
2023/07/25 06:32:53;;;;;;;19.55;6.55;;;;;;;14.16;100.00;100537.13;5063845;28;20109;-76
2023/07/25 06:35:19;;;;;;;19.05;6.20;;;;;;;14.22;100.00;100539.69;5061530;28;20068;-68
2023/07/25 06:37:44;;;;;;;19.95;6.20;;;;;;;14.28;100.00;100539.63;5060178;28;20041;-68
2023/07/25 06:40:10;;;;;;;18.75;6.15;;;;;;;14.38;100.00;100542.13;5056684;28;20029;-73
2023/07/25 06:42:35;;;;;;;18.33;5.40;;;;;;;14.52;100.00;100540.13;5062687;28;20032;-68
2023/07/25 06:45:02;;;;;;;17.70;5.10;;;;;;;14.58;100.00;100542.66;5060724;28;20054;-69
2023/07/25 06:47:28;;;;;;;16.90;4.97;;;;;;;14.63;100.00;100538.19;5066383;28;20032;-70
2023/07/25 06:49:53;;;;;;;17.02;4.63;;;;;;;14.81;100.00;100538.78;5066577;28;20464;-63
2023/07/25 06:52:18;;;;;;;14.88;4.28;;;;;;;14.86;100.00;100534.22;5067838;28;20117;-74
2023/07/25 06:54:44;;;;;;;20.25;4.85;;;;;;;14.94;100.00;100537.63;5064916;28;20155;-69
2023/07/25 06:57:10;;;;;;;16.65;4.47;;;;;;;15.08;100.00;100531.16;5066514;28;20068;-68
2023/07/25 06:59:35;;;;;;;18.67;4.60;;;;;;;15.20;100.00;100530.06;5066573;28;20031;-71
2023/07/25 07:02:01;;;;;;;18.40;5.00;;;;;;;15.24;100.00;100535.28;5066286;28;20037;-73
2023/07/25 07:04:26;;;;;;;20.17;4.80;;;;;;;15.21;100.00;100532.69;5066318;28;20391;-75
2023/07/25 07:06:51;;;;;;;16.73;4.57;;;;;;;15.20;100.00;100536.25;5060215;28;20041;-70
2023/07/25 07:09:17;;;;;;;18.05;4.38;;;;;;;15.31;100.00;100531.59;5058786;28;20025;-76
2023/07/25 07:11:43;;;;;;;19.70;4.57;;;;;;;15.61;100.00;100534.53;5060208;28;20404;-72
2023/07/25 07:14:08;;;;;;;17.02;4.20;;;;;;;16.02;100.00;100546.09;5064091;28;20035;-78
2023/07/25 07:16:34;;;;;;;18.35;3.95;;;;;;;16.52;100.00;100544.91;5061138;28;20171;-80
2023/07/25 07:18:59;;;;;;;15.25;3.47;;;;;;;16.87;100.00;100551.13;5059590;28;20109;-79
2023/07/25 07:21:25;;;;;;;17.92;3.78;;;;;;;16.92;100.00;100549.28;5060647;28;20186;-76
2023/07/25 07:23:50;;;;;;;15.80;3.78;;;;;;;16.89;100.00;100549.31;5067212;28;20379;-79
2023/07/25 07:26:15;;;;;;;15.07;3.47;;;;;;;16.95;100.00;100545.63;5063925;28;20036;-74
2023/07/25 07:28:41;;;;;;;17.58;3.53;;;;;;;16.99;100.00;100550.84;5067196;28;20020;-77
2023/07/25 07:31:09;;;;;;;16.55;3.33;;;;;;;16.95;100.00;100554.53;5059845;28;20431;-73
2023/07/25 07:33:34;;;;;;;15.52;3.15;;;;;;;16.94;100.00;100546.56;5059551;28;20029;-75
2023/07/25 07:35:59;;;;;;;15.70;3.10;;;;;;;16.85;100.00;100548.50;5057820;28;20083;-74
2023/07/25 07:38:25;;;;;;;14.90;3.17;;;;;;;16.78;100.00;100551.41;5058063;28;20017;-74
2023/07/25 07:40:50;;;;;;;16.13;3.20;;;;;;;16.62;100.00;100553.56;5064945;28;20033;-73
2023/07/25 07:43:16;;;;;;;12.95;3.22;;;;;;;16.49;100.00;100555.66;5066694;28;20028;-74
2023/07/25 07:45:41;;;;;;;15.82;3.53;;;;;;;16.48;100.00;100552.09;5064224;28;20084;-73
2023/07/25 07:48:06;;;;;;;18.02;3.33;;;;;;;16.31;100.00;100557.88;5064725;28;20021;-74
2023/07/25 07:50:33;;;;;;;14.50;3.30;;;;;;;16.13;100.00;100566.28;5064688;28;20025;-73
2023/07/25 07:52:59;;;;;;;15.75;2.97;;;;;;;15.96;100.00;100564.91;5064630;28;20029;-74
2023/07/25 07:55:25;;;;;;;15.23;2.90;;;;;;;15.96;100.00;100567.56;5064920;28;20131;-70
2023/07/25 07:57:50;;;;;;;15.32;2.97;;;;;;;16.02;100.00;100567.41;5064709;28;20120;-65
2023/07/25 08:00:16;;;;;;;13.98;2.72;;;;;;;16.16;100.00;100572.44;5063324;28;20040;-64
2023/07/25 08:02:43;;;;;;;12.43;2.78;;;;;;;16.21;100.00;100575.00;5066479;28;20041;-64
2023/07/25 08:05:09;;;;;;;13.52;2.70;;;;;;;16.25;100.00;100567.78;5066049;28;20036;-63
2023/07/25 08:07:35;;;;;;;11.73;2.60;;;;;;;16.39;100.00;100573.69;5063144;28;20024;-64
2023/07/25 08:10:00;;;;;;;13.27;2.75;;;;;;;16.53;100.00;100584.03;5066425;28;20520;-63
2023/07/25 08:12:26;;;;;;;15.23;2.60;;;;;;;16.77;100.00;100584.31;5063829;28;20029;-63
2023/07/25 08:14:51;;;;;;;13.57;2.70;;;;;;;17.05;100.00;100592.50;5064888;28;20029;-63
2023/07/25 08:17:18;;;;;;;15.98;2.85;;;;;;;17.30;100.00;100589.19;5065036;28;20107;-64
2023/07/25 08:19:43;;;;;;;11.65;2.70;;;;;;;17.48;100.00;100585.13;5061827;28;20059;-66
2023/07/25 08:22:10;;;;;;;8.90;2.50;;;;;;;17.74;100.00;100587.06;5062830;28;20064;-63
2023/07/25 08:24:36;;;;;;;11.68;2.55;;;;;;;17.79;100.00;100590.47;5066146;28;20027;-67
2023/07/25 08:27:01;;;;;;;13.27;2.50;;;;;;;17.74;100.00;100592.41;5062734;28;20028;-67
2023/07/25 08:29:27;;;;;;;11.38;2.40;;;;;;;17.50;100.00;100596.66;5062174;28;20120;-63
2023/07/25 08:31:52;;;;;;;12.98;2.70;;;;;;;17.34;100.00;100589.06;5064765;28;20159;-65
2023/07/25 08:34:18;;;;;;;11.88;2.50;;;;;;;17.16;100.00;100589.56;5064464;28;20033;-64
2023/07/25 08:36:43;;;;;;;11.65;2.50;;;;;;;17.24;100.00;100592.91;5063819;28;20041;-64
2023/07/25 08:39:09;;;;;;;11.75;2.55;;;;;;;17.39;100.00;100595.16;5065695;28;20036;-64
2023/07/25 08:41:49;;;;;;;11.73;2.60;;;;;;;17.53;100.00;100594.78;5062397;28;20067;-64
2023/07/25 08:44:16;;;;;;;12.43;2.50;;;;;;;17.63;100.00;100602.53;5061137;28;20021;-66
2023/07/25 08:46:45;;;;;;;11.73;2.90;;;;;;;17.83;100.00;100601.94;5065207;28;20395;-64
2023/07/25 08:49:17;;;;;;;12.60;2.58;;;;;;;17.92;100.00;100607.91;5062703;28;20024;-63
2023/07/25 08:51:44;;;;;;;13.73;2.70;;;;;;;17.99;100.00;100608.63;5064908;28;20039;-65
2023/07/25 08:54:24;;;;;;;13.52;2.78;;;;;;;18.07;100.00;100611.03;5062727;28;20033;-66
2023/07/25 08:56:49;;;;;;;13.07;2.58;;;;;;;18.16;100.00;100610.78;5063944;28;20036;-64
2023/07/25 08:59:17;;;;;;;12.40;2.40;;;;;;;18.13;100.00;100616.25;5063850;28;20044;-64
2023/07/25 09:01:42;;;;;;;14.98;2.80;;;;;;;18.09;100.00;100615.44;5064872;28;20045;-65
2023/07/25 09:04:10;;;;;;;15.88;2.80;;;;;;;18.20;100.00;100620.47;5062067;28;20085;-77
2023/07/25 09:06:35;;;;;;;12.77;2.83;;;;;;;18.46;100.00;100614.31;5064948;28;20044;-64
2023/07/25 09:09:01;;;;;;;13.68;2.60;;;;;;;18.78;100.00;100614.16;5062836;28;20021;-75
2023/07/25 09:11:26;;;;;;;14.52;2.50;;;;;;;19.10;100.00;100621.13;5063483;28;20464;-72
2023/07/25 09:13:52;;;;;;;13.13;2.53;;;;;;;19.44;100.00;100622.63;5064614;28;20025;-71
2023/07/25 09:16:18;;;;;;;10.00;2.50;;;;;;;19.68;92.88;100611.94;5064105;28;20025;-69
2023/07/25 09:18:43;;;;;;;10.82;2.60;;;;;;;19.81;92.48;100615.94;5062171;28;20028;-70
2023/07/25 09:21:08;;;;;;;12.65;2.60;;;;;;;20.27;92.88;100615.06;5064990;28;20060;-67
2023/07/25 09:23:34;;;;;;;13.00;2.60;;;;;;;20.58;85.20;100612.03;5061752;28;20049;-79
2023/07/25 09:26:05;;;;;;;14.52;2.70;;;;;;;20.81;80.79;100620.97;5057908;28;20090;-78
2023/07/25 09:28:31;;;;;;;10.43;2.50;;;;;;;20.89;73.44;100613.47;5057781;28;20025;-80
2023/07/25 09:30:57;;;;;;;11.18;2.60;;;;;;;21.18;72.51;100614.91;5057425;28;20029;-79
2023/07/25 09:33:27;;;;;;;17.00;2.88;;;;;;;21.38;72.34;100613.19;5064310;28;20472;-79
2023/07/25 09:35:53;;;;;;;12.32;2.50;;;;;;;21.18;70.82;100617.59;5061321;28;20068;-77
2023/07/25 09:38:19;;;;;;;13.80;2.58;;;;;;;20.89;71.10;100622.41;5064543;28;20379;-80
2023/07/25 09:40:47;;;;;;;12.52;2.35;;;;;;;20.59;71.65;100616.50;5061758;28;20025;-79
2023/07/25 09:43:33;;;;;;;10.77;2.50;;;;;;;20.53;74.02;100622.09;5064243;28;20071;-79
2023/07/25 09:45:58;;;;;;;12.07;2.50;;;;;;;20.40;71.98;100616.31;5059334;28;20044;-62
2023/07/25 09:48:24;;;;;;;11.93;2.45;;;;;;;20.48;74.28;100624.09;5064357;28;20029;-63
2023/07/25 09:50:50;;;;;;;11.82;2.65;;;;;;;20.66;72.68;100628.75;5061523;28;20040;-65
2023/07/25 09:53:16;;;;;;;9.52;2.22;;;;;;;20.70;70.60;100630.34;5064360;28;20027;-65
2023/07/25 09:55:43;;;;;;;12.85;2.42;;;;;;;20.64;73.13;100621.66;5064020;28;20442;-64
2023/07/25 09:58:09;;;;;;;12.13;2.60;;;;;;;21.25;64.48;100631.66;5061419;28;20036;-66
2023/07/25 10:00:34;;;;;;;10.48;2.30;;;;;;;21.22;65.57;100623.72;5063795;28;20036;-66
2023/07/25 10:03:00;;;;;;;11.20;2.40;;;;;;;20.78;68.98;100627.38;5062369;28;20098;-63
2023/07/25 10:05:28;;;;;;;8.88;2.17;;;;;;;20.19;72.71;100624.31;5062609;28;20075;-65
2023/07/25 10:07:53;;;;;;;14.00;2.40;;;;;;;19.76;71.28;100622.34;5063533;28;20392;-65
2023/07/25 10:10:19;;;;;;;11.25;2.20;;;;;;;19.53;73.08;100632.13;5061642;28;20113;-64
2023/07/25 10:12:45;;;;;;;11.48;2.40;;;;;;;19.53;75.36;100624.09;5064446;28;20484;-81
2023/07/25 10:15:12;;;;;;;13.88;2.20;;;;;;;19.50;76.98;100630.44;5056832;28;20023;-64
2023/07/25 10:17:38;;;;;;;12.90;2.33;;;;;;;19.46;75.01;100634.16;5064116;28;20064;-65
2023/07/25 10:20:07;;;;;;;10.80;2.58;;;;;;;20.20;78.38;100627.88;5061978;28;20060;-67
2023/07/25 10:22:36;;;;;;;8.65;2.20;;;;;;;23.41;64.23;100625.91;5062567;28;20025;-67
2023/07/25 10:25:07;;;;;;;8.02;2.10;;;;;;;26.26;50.26;100627.41;5061845;28;20421;-63
2023/07/25 10:27:33;;;;;;;9.27;2.20;;;;;;;27.77;44.48;100636.19;5063429;28;20032;-68
2023/07/25 10:30:02;;;;;;;8.63;2.20;;;;;;;28.33;41.84;100629.50;5062445;28;20380;-69
2023/07/25 10:32:45;;;;;;;11.65;2.10;;;;;;;29.71;42.29;100628.09;5062364;28;20051;-65
2023/07/25 10:35:10;;;;;;;11.65;2.40;;;;;;;30.17;37.06;100629.84;5056730;28;20044;-63
2023/07/25 10:37:44;;;;;;;11.43;2.22;;;;;;;28.19;40.72;100627.78;5063331;28;20060;-72
2023/07/25 10:40:22;;;;;;;9.52;2.20;;;;;;;26.15;44.34;100624.50;5060639;28;20025;-64
2023/07/25 10:42:47;;;;;;;12.02;2.30;;;;;;;24.34;45.61;100625.34;5050999;28;20028;-66
2023/07/25 10:45:28;;;;;;;8.88;2.20;;;;;;;24.71;48.69;100625.09;5058728;28;20358;-65
2023/07/25 10:47:58;;;;;;;10.30;2.20;;;;;;;26.55;43.98;100624.63;5057342;28;20033;-71
2023/07/25 10:50:48;;;;;;;12.00;2.35;;;;;;;27.48;41.53;100630.97;5058285;28;20033;-77
2023/07/25 10:53:14;;;;;;;8.85;2.13;;;;;;;27.54;37.42;100617.94;5057602;28;20044;-78
2023/07/25 10:56:05;;;;;;;7.75;2.10;;;;;;;28.02;39.84;100631.75;5053619;28;20093;-63
2023/07/25 10:58:31;;;;;;;11.93;2.30;;;;;;;29.14;37.89;100618.91;5055053;28;20438;-65
2023/07/25 11:00:57;;;;;;;13.68;2.60;;;;;;;28.87;38.57;100623.63;5056764;28;20027;-63
2023/07/25 11:03:33;;;;;;;9.60;2.10;;;;;;;29.73;37.41;100626.97;5061849;28;20087;-63
2023/07/25 11:06:07;;;;;;;7.15;2.13;;;;;;;30.79;36.13;100618.47;5063213;28;20033;-65
2023/07/25 11:08:33;;;;;;;9.80;2.25;;;;;;;29.79;35.17;100622.88;5058764;28;20032;-72